createdAt,value
2023-01-18T00:01:10.729Z,15.93
2023-01-18T00:03:40.704Z,16.80
2023-01-18T00:06:09.593Z,16.33
2023-01-18T00:08:38.616Z,16.60
2023-01-18T00:11:10.977Z,16.67
2023-01-18T00:13:38.298Z,15.85
2023-01-18T00:16:11.225Z,17.00
2023-01-18T00:18:37.967Z,16.25
2023-01-18T00:21:07.425Z,14.93
2023-01-18T00:23:34.744Z,15.38
2023-01-18T00:26:03.424Z,12.88
2023-01-18T00:28:30.675Z,12.88
2023-01-18T00:30:57.419Z,12.15
2023-01-18T00:33:24.395Z,12.80
2023-01-18T00:35:57.124Z,13.52
2023-01-18T00:38:23.985Z,15.30
2023-01-18T00:40:50.738Z,15.05
2023-01-18T00:43:35.538Z,14.23
2023-01-18T00:46:02.091Z,15.18
2023-01-18T00:48:28.705Z,14.93
2023-01-18T00:50:55.318Z,15.57
2023-01-18T00:53:21.904Z,15.90
2023-01-18T00:55:49.174Z,16.90
2023-01-18T00:58:15.693Z,16.08
2023-01-18T01:00:42.667Z,17.98
2023-01-18T01:03:09.437Z,16.35
2023-01-18T01:05:56.541Z,17.55
2023-01-18T01:08:23.633Z,19.65
2023-01-18T01:10:51.856Z,20.88
2023-01-18T01:13:39.957Z,21.38
2023-01-18T01:16:26.995Z,19.15
2023-01-18T01:19:12.797Z,22.23
2023-01-18T01:21:58.002Z,22.35
2023-01-18T01:24:43.774Z,21.02
2023-01-18T01:27:11.469Z,22.38
2023-01-18T01:29:38.517Z,23.15
2023-01-18T01:32:05.787Z,24.10
2023-01-18T01:34:32.509Z,21.48
2023-01-18T01:36:59.058Z,23.90
2023-01-18T01:39:25.595Z,22.73
2023-01-18T01:41:52.201Z,22.55
2023-01-18T01:44:20.006Z,21.65
2023-01-18T01:46:57.334Z,21.50
2023-01-18T01:49:32.925Z,22.55
2023-01-18T01:52:11.481Z,23.17
2023-01-18T01:54:46.113Z,23.88
2023-01-18T01:57:17.441Z,22.10
2023-01-18T01:59:50.601Z,23.83
2023-01-18T02:02:17.205Z,23.05
2023-01-18T02:04:45.195Z,21.48
2023-01-18T02:07:12.564Z,23.38
2023-01-18T02:09:39.641Z,22.38
2023-01-18T02:12:06.342Z,21.98
2023-01-18T02:14:33.031Z,23.80
2023-01-18T02:17:17.081Z,22.80
2023-01-18T02:20:25.124Z,21.05
2023-01-18T02:23:18.907Z,22.33
2023-01-18T02:25:48.069Z,20.05
2023-01-18T02:28:23.857Z,19.63
2023-01-18T02:31:13.670Z,20.38
2023-01-18T02:33:57.536Z,20.33
2023-01-18T02:36:54.847Z,20.67
2023-01-18T02:39:52.474Z,20.88
2023-01-18T02:42:40.680Z,21.83
2023-01-18T02:45:35.758Z,18.75
2023-01-18T02:48:03.346Z,22.67
2023-01-18T02:50:29.916Z,21.55
2023-01-18T02:52:56.724Z,20.73
2023-01-18T02:55:39.530Z,21.55
2023-01-18T02:58:21.801Z,22.63
2023-01-18T03:00:59.975Z,21.70
2023-01-18T03:03:27.079Z,23.90
2023-01-18T03:05:58.614Z,22.33
2023-01-18T03:08:38.676Z,21.13
2023-01-18T03:11:16.477Z,22.58
2023-01-18T03:14:11.183Z,19.25
2023-01-18T03:17:00.012Z,19.92
2023-01-18T03:19:57.129Z,20.15
2023-01-18T03:22:46.875Z,21.73
2023-01-18T03:25:17.654Z,22.80
2023-01-18T03:28:06.631Z,23.17
2023-01-18T03:30:53.254Z,21.65
2023-01-18T03:33:41.422Z,24.63
2023-01-18T03:36:12.508Z,22.45
2023-01-18T03:38:42.423Z,22.83
2023-01-18T03:41:11.350Z,24.58
2023-01-18T03:43:41.465Z,22.73
2023-01-18T03:46:08.326Z,24.17
2023-01-18T03:48:36.601Z,24.55
2023-01-18T03:51:25.902Z,24.15
2023-01-18T03:54:17.670Z,24.25
2023-01-18T03:56:52.472Z,22.40
2023-01-18T03:59:19.230Z,23.90
2023-01-18T04:01:48.066Z,24.95
2023-01-18T04:04:14.951Z,23.00
2023-01-18T04:06:41.696Z,24.60
2023-01-18T04:09:08.359Z,28.00
2023-01-18T04:11:35.017Z,27.13
2023-01-18T04:14:01.571Z,23.83
2023-01-18T04:16:28.159Z,23.63
2023-01-18T04:18:54.743Z,25.40
2023-01-18T04:21:21.277Z,25.80
2023-01-18T04:23:47.769Z,24.63
2023-01-18T04:26:16.712Z,26.20
2023-01-18T04:28:43.433Z,23.27
2023-01-18T04:31:10.052Z,24.60
2023-01-18T04:33:36.647Z,24.88
2023-01-18T04:36:04.114Z,24.55
2023-01-18T04:38:30.611Z,24.83
2023-01-18T04:41:02.745Z,23.45
2023-01-18T04:43:29.863Z,25.55
2023-01-18T04:45:57.260Z,24.27
2023-01-18T04:48:24.907Z,26.67
2023-01-18T04:50:51.588Z,26.27
2023-01-18T04:53:18.345Z,27.48
2023-01-18T04:55:45.522Z,28.58
2023-01-18T04:58:12.154Z,28.83
2023-01-18T05:00:39.970Z,31.48
2023-01-18T05:03:12.077Z,30.60
2023-01-18T05:05:39.007Z,28.23
2023-01-18T05:08:05.689Z,28.73
2023-01-18T05:10:33.583Z,29.38
2023-01-18T05:13:00.792Z,28.15
2023-01-18T05:15:27.688Z,26.83
2023-01-18T05:17:54.233Z,28.90
2023-01-18T05:20:20.831Z,26.88
2023-01-18T05:22:47.377Z,28.65
2023-01-18T05:25:13.966Z,27.10
2023-01-18T05:27:40.593Z,26.67
2023-01-18T05:30:08.835Z,28.27
2023-01-18T05:32:35.434Z,28.90
2023-01-18T05:35:03.783Z,27.95
2023-01-18T05:37:30.316Z,28.70
2023-01-18T05:39:57.281Z,28.70
2023-01-18T05:42:23.878Z,28.85
2023-01-18T05:44:50.419Z,28.35
2023-01-18T05:47:17.058Z,28.88
2023-01-18T05:49:43.534Z,29.42
2023-01-18T05:52:10.119Z,27.85
2023-01-18T05:54:36.647Z,28.67
2023-01-18T05:57:03.355Z,26.42
2023-01-18T05:59:29.856Z,27.70
2023-01-18T06:01:56.632Z,29.30
2023-01-18T06:04:23.469Z,26.08
2023-01-18T06:06:50.047Z,26.20
2023-01-18T06:09:16.648Z,26.13
2023-01-18T06:11:43.183Z,27.05
2023-01-18T06:14:09.787Z,28.20
2023-01-18T06:16:36.453Z,28.92
2023-01-18T06:19:03.065Z,27.30
2023-01-18T06:21:29.620Z,27.98
2023-01-18T06:23:56.112Z,25.42
2023-01-18T06:26:23.867Z,26.40
2023-01-18T06:28:50.467Z,27.65
2023-01-18T06:31:17.183Z,25.80
2023-01-18T06:33:44.204Z,26.02
2023-01-18T06:36:10.760Z,25.63
2023-01-18T06:38:37.362Z,27.45
2023-01-18T06:41:03.987Z,26.23
2023-01-18T06:43:30.578Z,27.38
2023-01-18T06:45:57.358Z,28.50
2023-01-18T06:48:25.158Z,29.85
2023-01-18T06:50:52.579Z,29.35
2023-01-18T06:53:22.362Z,26.35
2023-01-18T06:56:01.900Z,25.25
2023-01-18T06:58:31.042Z,25.48
2023-01-18T07:00:59.237Z,23.23
2023-01-18T07:03:27.329Z,24.65
2023-01-18T07:05:55.057Z,25.08
2023-01-18T07:08:22.118Z,22.73
2023-01-18T07:10:49.519Z,23.42
2023-01-18T07:13:15.957Z,22.88
2023-01-18T07:15:42.687Z,24.88
2023-01-18T07:18:09.349Z,22.48
2023-01-18T07:20:35.877Z,21.98
2023-01-18T07:23:02.639Z,22.38
2023-01-18T07:25:29.524Z,22.92
2023-01-18T07:27:58.982Z,23.65
2023-01-18T07:30:25.766Z,22.67
2023-01-18T07:32:53.174Z,23.38
2023-01-18T07:35:24.433Z,25.30
2023-01-18T07:37:53.041Z,23.30
2023-01-18T07:40:21.269Z,23.70
2023-01-18T07:42:49.109Z,23.00
2023-01-18T07:45:15.899Z,21.73
2023-01-18T07:47:42.776Z,23.17
2023-01-18T07:50:10.294Z,23.98
2023-01-18T07:52:36.754Z,22.48
2023-01-18T07:55:06.503Z,22.25
2023-01-18T07:57:33.185Z,23.70
2023-01-18T07:59:59.639Z,22.58
2023-01-18T08:02:26.169Z,24.30
2023-01-18T08:04:52.700Z,23.55
2023-01-18T08:07:19.888Z,22.60
2023-01-18T08:09:46.371Z,22.70
2023-01-18T08:12:17.973Z,23.85
2023-01-18T08:14:45.833Z,24.35
2023-01-18T08:17:12.463Z,24.17
2023-01-18T08:19:38.921Z,24.95
2023-01-18T08:22:05.532Z,24.52
2023-01-18T08:24:32.025Z,26.30
2023-01-18T08:26:58.595Z,25.45
2023-01-18T08:29:25.377Z,25.75
2023-01-18T08:31:52.519Z,26.33
2023-01-18T08:34:19.258Z,25.75
2023-01-18T08:36:45.835Z,24.65
2023-01-18T08:39:13.643Z,27.67
2023-01-18T08:41:41.260Z,26.63
2023-01-18T08:44:08.207Z,28.98
2023-01-18T08:46:36.190Z,29.58
2023-01-18T08:49:05.642Z,28.80
2023-01-18T08:51:32.559Z,28.30
2023-01-18T08:53:59.827Z,26.75
2023-01-18T08:56:27.243Z,28.95
2023-01-18T08:58:54.212Z,26.38
2023-01-18T09:01:23.046Z,28.02
2023-01-18T09:03:50.598Z,27.05
2023-01-18T09:06:17.454Z,27.42
2023-01-18T09:08:47.505Z,24.92
2023-01-18T09:11:14.750Z,27.75
2023-01-18T09:13:58.603Z,25.27
2023-01-18T09:16:26.227Z,25.15
2023-01-18T09:18:53.880Z,23.70
2023-01-18T09:21:21.001Z,23.63
2023-01-18T09:23:49.181Z,23.90
2023-01-18T09:26:21.067Z,25.20
2023-01-18T09:28:51.086Z,24.77
2023-01-18T09:31:18.875Z,24.30
2023-01-18T09:33:52.900Z,22.33
2023-01-18T09:36:23.699Z,24.90
2023-01-18T09:38:50.177Z,22.30
2023-01-18T09:41:33.109Z,23.75
2023-01-18T09:44:16.735Z,22.30
2023-01-18T09:46:44.450Z,23.48
2023-01-18T09:49:31.355Z,23.10
2023-01-18T09:52:27.181Z,19.38
2023-01-18T09:55:03.691Z,17.35
2023-01-18T09:57:49.954Z,18.02
2023-01-18T10:00:23.981Z,16.60
2023-01-18T10:02:57.577Z,13.40
2023-01-18T10:05:29.205Z,11.95
2023-01-18T10:08:16.440Z,12.35
2023-01-18T10:11:04.378Z,12.93
2023-01-18T10:13:42.829Z,12.30
2023-01-18T10:16:16.646Z,12.38
2023-01-18T10:18:45.820Z,10.85
2023-01-18T10:21:37.064Z,10.23
2023-01-18T10:24:20.011Z,10.57
2023-01-18T10:26:48.687Z,10.27
2023-01-18T10:29:39.788Z,11.15
2023-01-18T10:32:14.283Z,11.45
2023-01-18T10:34:51.882Z,12.40
2023-01-18T10:37:30.444Z,11.40
2023-01-18T10:40:00.751Z,12.07
2023-01-18T10:42:45.178Z,13.05
2023-01-18T10:45:20.237Z,14.27
2023-01-18T10:47:52.232Z,13.10
2023-01-18T10:50:35.826Z,12.75
2023-01-18T10:53:24.818Z,12.05
2023-01-18T10:56:03.853Z,12.52
2023-01-18T10:58:51.398Z,11.23
2023-01-18T11:01:23.943Z,10.30
2023-01-18T11:04:07.421Z,9.68
2023-01-18T11:06:53.532Z,9.60
2023-01-18T11:09:40.749Z,9.32
2023-01-18T11:12:42.522Z,8.73
2023-01-18T11:32:39.871Z,7.72
2023-01-18T11:35:09.576Z,7.57
2023-01-18T11:37:39.970Z,7.72
2023-01-18T11:40:26.907Z,8.32
2023-01-18T11:43:15.296Z,8.90
2023-01-18T11:46:00.465Z,8.00
2023-01-18T11:48:39.752Z,7.85
2023-01-18T11:51:17.310Z,9.25
2023-01-18T11:54:11.941Z,8.68
2023-01-18T11:56:45.224Z,8.45
2023-01-18T11:59:23.022Z,8.63
2023-01-18T12:02:11.385Z,8.48
2023-01-18T12:04:53.248Z,8.73
2023-01-18T12:07:57.827Z,10.35
2023-01-18T12:10:27.719Z,8.95
2023-01-18T12:13:12.583Z,9.35
2023-01-18T12:16:11.186Z,9.63
2023-01-18T12:19:15.392Z,12.55
2023-01-18T12:22:26.854Z,10.63
2023-01-18T12:25:30.879Z,9.20
2023-01-18T12:28:23.566Z,7.97
2023-01-18T12:31:17.673Z,9.35
2023-01-18T12:33:57.637Z,9.82
2023-01-18T12:37:01.776Z,8.65
2023-01-18T12:39:37.121Z,9.48
2023-01-18T12:42:09.957Z,10.93
2023-01-18T12:44:44.517Z,9.52
2023-01-18T12:47:13.767Z,10.35
2023-01-18T12:49:45.713Z,8.82
2023-01-18T12:52:19.354Z,8.02
2023-01-18T12:54:50.830Z,7.95
2023-01-18T12:57:19.669Z,8.90
2023-01-18T13:00:07.701Z,8.00
2023-01-18T13:02:39.928Z,8.27
2023-01-18T13:05:18.325Z,8.40
2023-01-18T13:08:01.405Z,8.35
2023-01-18T13:10:28.896Z,8.80
2023-01-18T13:12:57.155Z,8.27
2023-01-18T13:15:36.325Z,9.23
2023-01-18T13:18:17.021Z,8.35
2023-01-18T13:21:04.072Z,8.63
2023-01-18T13:23:40.654Z,7.97
2023-01-18T13:26:19.321Z,8.48
2023-01-18T13:28:46.330Z,8.20
2023-01-18T13:31:13.439Z,8.38
2023-01-18T13:33:47.275Z,8.57
2023-01-18T13:36:21.626Z,8.60
2023-01-18T13:38:53.534Z,8.85
2023-01-18T13:41:29.404Z,9.30
2023-01-18T13:44:01.436Z,8.63
2023-01-18T13:46:29.932Z,9.77
2023-01-18T13:49:36.153Z,8.88
2023-01-18T13:52:31.346Z,7.78
2023-01-18T13:55:04.016Z,8.25
2023-01-18T13:57:32.417Z,9.07
2023-01-18T14:00:00.140Z,7.97
2023-01-18T14:02:29.292Z,7.78
2023-01-18T14:05:19.829Z,8.68
2023-01-18T14:07:49.863Z,8.10
2023-01-18T14:10:30.396Z,8.60
2023-01-18T14:12:58.682Z,8.63
2023-01-18T14:15:30.729Z,8.63
2023-01-18T14:17:59.234Z,9.60
2023-01-18T14:20:48.465Z,8.65
2023-01-18T14:23:29.227Z,8.55
2023-01-18T14:26:03.574Z,8.63
2023-01-18T14:28:46.790Z,9.05
2023-01-18T14:31:19.647Z,9.52
2023-01-18T14:33:47.000Z,10.13
2023-01-18T14:36:39.553Z,10.30
2023-01-18T14:39:12.957Z,10.23
2023-01-18T14:41:46.039Z,10.20
2023-01-18T14:44:19.608Z,10.30
2023-01-18T14:46:51.383Z,9.30
2023-01-18T14:49:30.620Z,9.63
2023-01-18T14:51:58.998Z,10.07
2023-01-18T14:54:28.158Z,11.40
2023-01-18T14:57:04.191Z,9.98
2023-01-18T14:59:32.142Z,11.55
2023-01-18T15:02:19.726Z,12.43
2023-01-18T15:04:47.468Z,11.05
2023-01-18T15:07:19.444Z,12.82
2023-01-18T15:09:47.117Z,16.80
2023-01-18T15:12:22.559Z,12.77
2023-01-18T15:14:50.745Z,10.98
2023-01-18T15:17:22.285Z,12.20
2023-01-18T15:19:55.636Z,11.45
2023-01-18T15:22:29.322Z,11.57
2023-01-18T15:24:58.034Z,11.55
2023-01-18T15:27:25.333Z,11.93
2023-01-18T15:29:57.525Z,11.32
2023-01-18T15:32:27.567Z,12.25
2023-01-18T15:34:55.937Z,13.05
2023-01-18T15:37:26.239Z,12.63
2023-01-18T15:40:13.014Z,12.98
2023-01-18T15:42:42.950Z,12.90
2023-01-18T15:45:22.277Z,12.60
2023-01-18T15:47:52.377Z,13.00
2023-01-18T15:50:21.043Z,13.35
2023-01-18T15:53:06.198Z,12.85
2023-01-18T15:55:40.024Z,11.95
2023-01-18T15:58:34.897Z,14.27
2023-01-18T16:01:05.640Z,12.15
2023-01-18T16:03:55.512Z,12.85
2023-01-18T16:06:21.991Z,12.23
2023-01-18T16:09:16.064Z,12.57
2023-01-18T16:12:01.055Z,14.88
2023-01-18T16:14:35.968Z,12.70
2023-01-18T16:17:10.146Z,14.00
2023-01-18T16:19:46.029Z,13.18
2023-01-18T16:22:29.803Z,11.43
2023-01-18T16:25:01.320Z,12.82
2023-01-18T16:27:31.053Z,12.02
2023-01-18T16:30:00.957Z,12.68
2023-01-18T16:32:33.487Z,11.35
2023-01-18T16:35:03.545Z,12.23
2023-01-18T16:37:30.723Z,13.02
2023-01-18T16:39:57.304Z,11.85
2023-01-18T16:42:37.102Z,12.25
2023-01-18T16:45:05.111Z,12.55
2023-01-18T16:47:31.604Z,11.80
2023-01-18T16:49:59.316Z,11.98
2023-01-18T16:52:26.281Z,12.02
2023-01-18T16:54:53.360Z,12.57
2023-01-18T16:57:22.500Z,13.68
2023-01-18T16:59:49.926Z,14.30
2023-01-18T17:02:16.563Z,13.45
2023-01-18T17:04:45.345Z,13.90
2023-01-18T17:07:12.732Z,15.18
2023-01-18T17:09:47.980Z,16.70
2023-01-18T17:12:15.143Z,14.82
2023-01-18T17:14:41.650Z,14.52
2023-01-18T17:17:09.695Z,14.27
2023-01-18T17:19:37.796Z,14.55
2023-01-18T17:22:04.431Z,13.98
2023-01-18T17:24:30.947Z,13.15
2023-01-18T17:26:57.493Z,15.68
2023-01-18T17:29:24.326Z,15.55
2023-01-18T17:31:52.958Z,13.63
2023-01-18T17:34:28.194Z,15.02
2023-01-18T17:36:58.130Z,15.02
2023-01-18T17:39:32.014Z,14.73
2023-01-18T17:42:14.298Z,13.85
2023-01-18T17:44:43.426Z,15.15
2023-01-18T17:47:09.996Z,15.23
2023-01-18T17:49:36.519Z,16.27
2023-01-18T17:52:03.211Z,13.32
2023-01-18T17:54:29.724Z,13.52
2023-01-18T17:59:22.628Z,13.18
2023-01-18T18:01:49.323Z,12.20
2023-01-18T18:04:15.986Z,13.77
2023-01-18T18:06:49.747Z,12.57
2023-01-18T18:09:20.554Z,13.85
2023-01-18T18:11:47.121Z,14.00
2023-01-18T18:14:13.664Z,35.08
2023-01-18T18:16:43.497Z,17.58
2023-01-18T18:19:14.552Z,18.48
2023-01-18T18:21:47.515Z,18.45
2023-01-18T18:24:14.150Z,18.38
2023-01-18T18:26:40.718Z,16.73
2023-01-18T18:29:07.717Z,16.50
2023-01-18T18:31:34.270Z,14.52
2023-01-18T18:34:00.801Z,15.80
2023-01-18T18:36:27.961Z,15.35
2023-01-18T18:38:54.561Z,16.20
2023-01-18T18:41:21.464Z,16.88
2023-01-18T18:43:47.952Z,16.20
2023-01-18T18:46:14.899Z,17.02
2023-01-18T18:48:41.590Z,16.25
2023-01-18T18:51:08.104Z,18.48
2023-01-18T18:53:38.617Z,19.17
2023-01-18T18:56:09.430Z,19.38
2023-01-18T18:58:39.376Z,21.23
2023-01-18T19:01:08.067Z,19.65
2023-01-18T19:03:35.132Z,20.98
2023-01-18T19:06:02.830Z,24.40
2023-01-18T19:08:29.333Z,22.60
2023-01-18T19:10:57.156Z,27.58
2023-01-18T19:13:23.611Z,18.92
2023-01-18T19:15:51.246Z,22.42
2023-01-18T19:18:17.806Z,23.42
2023-01-18T19:20:44.313Z,18.88
2023-01-18T19:23:11.304Z,20.17
2023-01-18T19:25:38.759Z,17.10
2023-01-18T19:28:05.337Z,18.70
2023-01-18T19:30:33.158Z,20.73
2023-01-18T19:33:00.199Z,17.38
2023-01-18T19:35:27.014Z,17.77
2023-01-18T19:37:53.844Z,19.08
2023-01-18T19:40:20.927Z,18.27
2023-01-18T19:42:59.573Z,18.33
2023-01-18T19:45:28.613Z,18.48
2023-01-18T19:47:56.998Z,18.70
2023-01-18T19:50:23.893Z,102.07
2023-01-18T19:52:50.723Z,105.10
2023-01-18T19:55:17.193Z,29.98
2023-01-18T19:57:43.692Z,23.55
2023-01-18T20:00:10.849Z,19.25
2023-01-18T20:02:41.350Z,19.70
2023-01-18T20:05:08.747Z,17.38
2023-01-18T20:07:38.676Z,17.13
2023-01-18T20:10:06.386Z,17.70
2023-01-18T20:12:33.593Z,16.55
2023-01-18T20:15:00.296Z,16.85
2023-01-18T20:17:26.773Z,16.45
2023-01-18T20:19:54.231Z,16.70
2023-01-18T20:22:22.109Z,16.38
2023-01-18T20:24:48.619Z,16.92
2023-01-18T20:27:17.125Z,18.10
2023-01-18T20:29:44.785Z,16.75
2023-01-18T20:32:17.261Z,15.60
2023-01-18T20:34:46.435Z,14.30
2023-01-18T20:37:14.017Z,14.20
2023-01-18T20:39:40.524Z,15.27
2023-01-18T20:42:07.162Z,16.00
2023-01-18T20:44:34.277Z,15.88
2023-01-18T20:47:00.911Z,19.67
2023-01-18T20:49:36.995Z,48.38
2023-01-18T20:52:05.216Z,31.05
2023-01-18T20:54:31.690Z,19.17
2023-01-18T20:59:25.966Z,16.13
2023-01-18T21:01:53.037Z,17.52
2023-01-18T21:04:22.366Z,16.65
2023-01-18T21:06:49.768Z,15.40
2023-01-18T21:09:16.771Z,15.02
2023-01-18T21:11:43.553Z,15.93
2023-01-18T21:14:10.042Z,14.32
2023-01-18T21:16:36.668Z,14.25
2023-01-18T21:19:03.179Z,14.63
2023-01-18T21:23:58.461Z,14.73
2023-01-18T21:26:25.226Z,13.95
2023-01-18T21:28:51.715Z,14.48
2023-01-18T21:31:18.356Z,13.60
2023-01-18T21:33:44.958Z,13.48
2023-01-18T21:36:14.168Z,13.25
2023-01-18T21:38:41.286Z,15.38
2023-01-18T21:41:26.863Z,14.13
2023-01-18T21:44:12.803Z,14.20
2023-01-18T21:46:44.900Z,14.93
2023-01-18T21:49:47.460Z,15.20
2023-01-18T21:52:36.551Z,14.50
2023-01-18T21:55:03.033Z,15.27
2023-01-18T21:57:29.495Z,14.68
2023-01-18T21:59:55.998Z,15.88
2023-01-18T22:05:01.935Z,14.60
2023-01-18T22:07:30.236Z,14.95
2023-01-18T22:10:05.133Z,15.43
2023-01-18T22:12:34.902Z,16.60
2023-01-18T22:15:02.918Z,14.25
2023-01-18T22:17:29.748Z,15.23
2023-01-18T22:19:56.361Z,14.88
2023-01-18T22:22:22.908Z,13.98
2023-01-18T22:24:49.376Z,14.93
2023-01-18T22:29:42.250Z,14.65
2023-01-18T22:32:08.748Z,14.50
2023-01-18T22:34:35.190Z,13.98
2023-01-18T22:37:01.951Z,13.80
2023-01-18T22:39:28.480Z,15.32
2023-01-18T22:41:54.990Z,15.75
2023-01-18T22:44:21.445Z,17.10
2023-01-18T22:46:47.943Z,14.93
2023-01-18T22:49:14.413Z,15.15
2023-01-18T22:51:40.908Z,15.60
2023-01-18T22:54:07.453Z,16.55
2023-01-18T22:56:34.211Z,16.67
2023-01-18T22:59:00.687Z,16.40
2023-01-18T23:17:42.183Z,21.40
2023-01-18T23:20:14.892Z,21.00
2023-01-18T23:22:41.463Z,20.25
2023-01-18T23:25:08.855Z,20.42
2023-01-18T23:27:35.479Z,20.17
2023-01-18T23:30:02.601Z,20.13
2023-01-18T23:32:32.122Z,20.65
2023-01-18T23:34:59.678Z,21.38
2023-01-18T23:37:26.816Z,21.77
2023-01-18T23:40:12.054Z,18.85
2023-01-18T23:42:57.133Z,21.27
2023-01-18T23:45:42.491Z,21.52
2023-01-18T23:48:38.435Z,19.83
2023-01-18T23:51:23.629Z,21.17
2023-01-18T23:54:08.835Z,19.88
2023-01-18T23:56:35.324Z,20.05
2023-01-18T23:59:02.592Z,21.60
